createdAt,value
2017-11-30T06:29:46.262Z,36.40
2017-11-30T06:32:12.980Z,33.08
2017-11-30T06:34:39.628Z,27.62
2017-11-30T06:37:06.348Z,21.92
2017-11-30T06:39:33.761Z,23.73
2017-11-30T06:42:00.461Z,21.60
2017-11-30T06:44:27.940Z,19.87
2017-11-30T06:46:54.604Z,24.50
2017-11-30T06:49:21.242Z,20.77
2017-11-30T06:51:48.005Z,25.62
2017-11-30T06:54:14.696Z,16.20
2017-11-30T06:56:42.167Z,22.15
2017-11-30T06:59:08.880Z,26.98
2017-11-30T07:01:35.540Z,26.65
2017-11-30T07:04:02.991Z,26.67
2017-11-30T07:06:30.461Z,20.12
2017-11-30T07:08:57.899Z,24.17
2017-11-30T07:11:24.644Z,20.30
2017-11-30T07:13:51.351Z,279.10
2017-11-30T07:16:18.064Z,35.17
2017-11-30T07:18:44.745Z,27.90
2017-11-30T07:21:11.440Z,98.00
2017-11-30T07:23:38.104Z,36.88
2017-11-30T07:26:04.877Z,53.80
2017-11-30T07:28:31.550Z,32.15
2017-11-30T07:30:58.239Z,25.23
2017-11-30T07:33:24.924Z,47.67
2017-11-30T07:35:51.583Z,22.80
2017-11-30T07:38:18.281Z,14.98
2017-11-30T07:40:45.021Z,23.17
2017-11-30T07:43:11.707Z,20.02
2017-11-30T07:45:38.384Z,22.90
2017-11-30T07:48:05.057Z,20.25
2017-11-30T07:50:31.749Z,27.95
2017-11-30T07:52:59.185Z,21.48
2017-11-30T07:55:25.885Z,21.23
2017-11-30T07:57:52.562Z,18.48
2017-11-30T08:00:19.262Z,19.65
2017-11-30T08:02:45.947Z,22.25
2017-11-30T08:05:12.651Z,19.23
2017-11-30T08:07:39.358Z,21.00
2017-11-30T08:10:06.043Z,21.42
2017-11-30T08:12:32.729Z,18.25
2017-11-30T08:14:59.404Z,21.10
2017-11-30T08:17:26.089Z,22.52
2017-11-30T08:19:52.841Z,23.92
2017-11-30T08:22:19.483Z,17.98
2017-11-30T08:24:46.227Z,23.12
2017-11-30T08:27:14.670Z,23.08
2017-11-30T08:29:42.043Z,23.15
2017-11-30T08:32:08.748Z,23.87
2017-11-30T08:34:36.198Z,18.75
2017-11-30T08:37:02.915Z,19.15
2017-11-30T08:39:29.590Z,21.23
2017-11-30T08:41:56.292Z,20.15
2017-11-30T08:44:23.104Z,22.08
2017-11-30T08:46:49.889Z,22.48
2017-11-30T08:49:16.671Z,43.85
2017-11-30T08:51:43.442Z,17.62
2017-11-30T08:54:10.884Z,26.98
2017-11-30T08:56:37.644Z,20.40
2017-11-30T08:59:05.072Z,29.02
2017-11-30T09:01:31.760Z,22.08
2017-11-30T09:03:58.465Z,19.37
2017-11-30T09:06:25.174Z,17.52
2017-11-30T09:08:51.859Z,17.77
2017-11-30T09:11:18.516Z,231.00
2017-11-30T09:13:45.934Z,15.15
2017-11-30T09:16:12.641Z,17.87
2017-11-30T09:18:39.371Z,27.48
2017-11-30T09:21:06.046Z,9.82
2017-11-30T09:23:32.766Z,11.75
2017-11-30T09:26:00.263Z,11.30
2017-11-30T09:28:26.950Z,7.55
2017-11-30T09:30:53.589Z,6.50
2017-11-30T09:33:22.185Z,6.45
2017-11-30T09:40:24.014Z,4.60
2017-11-30T09:42:50.673Z,5.28
2017-11-30T09:45:17.438Z,5.15
2017-11-30T09:47:44.159Z,5.60
2017-11-30T09:50:10.852Z,3.35
2017-11-30T09:52:38.296Z,4.40
2017-11-30T09:55:05.006Z,8.10
2017-11-30T09:57:31.741Z,7.32
2017-11-30T09:59:58.440Z,8.75
2017-11-30T10:02:25.882Z,8.80
2017-11-30T10:04:53.345Z,8.15
2017-11-30T10:07:20.067Z,8.13
2017-11-30T10:09:46.756Z,8.55
2017-11-30T10:12:14.165Z,9.30
2017-11-30T10:14:40.847Z,8.93
2017-11-30T10:17:07.508Z,10.17
2017-11-30T10:19:34.892Z,10.33
2017-11-30T10:22:01.603Z,12.02
2017-11-30T10:24:29.054Z,11.63
2017-11-30T10:26:56.487Z,14.95
2017-11-30T10:29:23.156Z,15.18
2017-11-30T10:31:49.833Z,13.45
2017-11-30T10:34:16.523Z,18.50
2017-11-30T10:36:43.223Z,16.60
2017-11-30T10:39:09.933Z,17.25
2017-11-30T10:41:37.343Z,19.33
2017-11-30T10:44:04.048Z,18.98
2017-11-30T10:46:31.495Z,19.00
2017-11-30T10:48:58.907Z,17.75
2017-11-30T10:51:25.578Z,24.58
2017-11-30T10:53:52.263Z,19.05
2017-11-30T10:56:18.915Z,17.85
2017-11-30T10:58:45.640Z,17.67
2017-11-30T11:01:13.048Z,16.15
2017-11-30T11:03:39.695Z,16.05
2017-11-30T11:06:06.394Z,14.15
2017-11-30T11:08:33.097Z,14.95
2017-11-30T11:10:59.802Z,12.18
2017-11-30T11:13:26.530Z,12.95
2017-11-30T11:15:53.237Z,10.60
2017-11-30T11:18:19.903Z,10.60
2017-11-30T11:20:47.420Z,14.73
2017-11-30T11:23:14.152Z,15.55
2017-11-30T11:25:40.831Z,12.30
2017-11-30T11:28:07.546Z,12.37
2017-11-30T11:30:34.214Z,14.55
2017-11-30T11:33:00.946Z,11.00
2017-11-30T11:35:27.650Z,12.30
2017-11-30T11:37:54.354Z,13.23
2017-11-30T11:40:21.877Z,8.93
2017-11-30T11:42:48.573Z,9.53
2017-11-30T11:45:15.243Z,8.70
2017-11-30T11:47:41.994Z,8.87
2017-11-30T11:50:08.655Z,10.23
2017-11-30T11:52:35.638Z,7.07
2017-11-30T11:55:02.348Z,8.73
2017-11-30T11:57:29.043Z,7.83
2017-11-30T11:59:56.471Z,10.77
2017-11-30T12:02:23.157Z,8.10
2017-11-30T12:04:49.850Z,9.63
2017-11-30T12:07:16.554Z,8.23
2017-11-30T12:09:43.199Z,9.60
2017-11-30T12:12:10.064Z,9.80
2017-11-30T12:14:36.904Z,9.87
2017-11-30T12:17:03.595Z,11.77
2017-11-30T12:19:31.015Z,12.77
2017-11-30T12:21:57.696Z,14.80
2017-11-30T12:24:25.220Z,17.67
2017-11-30T12:26:51.890Z,10.83
2017-11-30T12:29:20.204Z,8.67
2017-11-30T12:31:47.463Z,7.27
2017-11-30T12:34:15.459Z,8.70
2017-11-30T12:36:42.634Z,9.17
2017-11-30T12:39:10.625Z,8.30
2017-11-30T12:41:37.303Z,9.10
2017-11-30T12:44:04.718Z,11.00
2017-11-30T12:46:31.436Z,7.03
2017-11-30T12:48:58.119Z,9.53
2017-11-30T12:51:24.777Z,10.40
2017-11-30T12:53:51.465Z,9.80
2017-11-30T12:56:18.241Z,12.23
2017-11-30T12:58:45.625Z,12.10
2017-11-30T13:01:13.109Z,12.73
2017-11-30T13:03:40.584Z,14.87
2017-11-30T13:06:07.374Z,14.32
2017-11-30T13:08:35.115Z,22.00
2017-11-30T13:11:01.864Z,15.93
2017-11-30T13:13:28.642Z,13.90
2017-11-30T13:15:56.233Z,19.65
2017-11-30T13:18:23.023Z,19.75
2017-11-30T13:20:50.526Z,15.68
2017-11-30T13:23:17.316Z,16.93
2017-11-30T13:25:44.064Z,16.30
2017-11-30T13:28:10.733Z,18.30
2017-11-30T13:30:37.443Z,17.45
2017-11-30T13:33:04.241Z,14.50
2017-11-30T13:35:31.228Z,11.07
2017-11-30T13:37:57.938Z,15.35
2017-11-30T13:40:25.486Z,13.75
2017-11-30T13:42:52.143Z,14.57
2017-11-30T13:45:19.562Z,13.60
2017-11-30T13:47:46.280Z,21.25
2017-11-30T13:50:13.041Z,20.52
2017-11-30T13:52:39.732Z,19.60
2017-11-30T13:55:06.417Z,20.17
2017-11-30T13:57:33.107Z,15.35
2017-11-30T13:59:59.831Z,15.80
2017-11-30T14:02:26.479Z,22.92
2017-11-30T14:04:53.208Z,18.25
2017-11-30T14:07:19.909Z,20.17
2017-11-30T14:09:47.135Z,20.45
2017-11-30T14:12:14.183Z,21.30
2017-11-30T14:14:40.867Z,20.23
2017-11-30T14:17:07.519Z,20.15
2017-11-30T14:19:34.178Z,19.95
2017-11-30T14:22:00.841Z,22.25
2017-11-30T14:24:27.510Z,23.87
2017-11-30T14:26:54.218Z,23.83
2017-11-30T14:29:20.888Z,22.75
2017-11-30T14:31:47.582Z,21.08
2017-11-30T14:34:14.280Z,22.65
2017-11-30T14:36:40.985Z,20.75
2017-11-30T14:39:07.647Z,21.23
2017-11-30T14:41:34.368Z,21.73
2017-11-30T14:44:01.071Z,19.80
2017-11-30T14:46:28.464Z,23.30
2017-11-30T14:48:55.135Z,19.87
2017-11-30T14:51:22.573Z,17.42
2017-11-30T14:53:49.237Z,20.10
2017-11-30T14:56:15.950Z,22.65
2017-11-30T14:58:43.473Z,18.05
2017-11-30T15:01:10.866Z,23.75
2017-11-30T15:03:37.544Z,21.83
2017-11-30T15:06:04.210Z,21.52
2017-11-30T15:08:30.885Z,32.90
2017-11-30T15:10:57.630Z,22.67
2017-11-30T15:13:24.339Z,25.95
2017-11-30T15:15:51.051Z,28.27
2017-11-30T15:18:17.760Z,24.87
2017-11-30T15:20:44.438Z,31.75
2017-11-30T15:23:11.110Z,27.75
2017-11-30T15:25:37.777Z,26.65
2017-11-30T15:28:04.511Z,26.77
2017-11-30T15:30:31.169Z,27.70
2017-11-30T15:33:05.292Z,28.10
2017-11-30T15:35:32.443Z,26.62
2017-11-30T15:37:59.114Z,33.38
2017-11-30T15:40:25.800Z,29.15
2017-11-30T15:42:52.476Z,34.90
2017-11-30T15:45:19.211Z,29.80
2017-11-30T15:47:45.965Z,31.35
2017-11-30T15:50:12.633Z,45.75
2017-11-30T15:52:39.302Z,45.95
2017-11-30T15:55:06.001Z,43.80
2017-11-30T15:57:32.707Z,44.67
2017-11-30T15:59:59.367Z,47.47
2017-11-30T16:02:26.051Z,44.47
2017-11-30T16:04:52.708Z,43.55
2017-11-30T16:07:19.395Z,42.78
2017-11-30T16:09:46.797Z,41.85
2017-11-30T16:12:13.500Z,39.35
2017-11-30T16:14:41.712Z,40.15
2017-11-30T16:17:08.393Z,45.17
2017-11-30T16:19:35.047Z,36.92
2017-11-30T16:22:02.529Z,38.53
2017-11-30T16:24:29.948Z,44.80
2017-11-30T16:26:56.654Z,42.88
2017-11-30T16:29:23.419Z,45.30
2017-11-30T16:31:50.082Z,39.22
2017-11-30T16:34:16.755Z,48.45
2017-11-30T16:36:44.205Z,37.97
2017-11-30T16:39:11.710Z,40.60
2017-11-30T16:41:38.465Z,37.80
2017-11-30T16:44:05.222Z,42.60
2017-11-30T16:46:33.275Z,39.00
2017-11-30T16:49:01.237Z,35.05
2017-11-30T16:51:28.757Z,40.88
2017-11-30T16:53:56.815Z,42.60
2017-11-30T16:56:23.623Z,40.50
2017-11-30T16:58:50.291Z,35.97
2017-11-30T17:01:16.973Z,35.70
2017-11-30T17:03:43.664Z,30.75
2017-11-30T17:06:10.359Z,28.33
2017-11-30T17:08:37.338Z,29.40
2017-11-30T17:11:04.091Z,29.83
2017-11-30T17:13:31.070Z,42.40
2017-11-30T17:15:57.756Z,34.80
2017-11-30T17:18:25.273Z,31.05
2017-11-30T17:20:51.980Z,31.30
2017-11-30T17:23:18.719Z,36.17
2017-11-30T17:25:45.478Z,36.55
2017-11-30T17:28:12.240Z,33.80
2017-11-30T17:30:38.906Z,37.45
2017-11-30T17:33:05.582Z,33.92
2017-11-30T17:35:33.067Z,37.25
2017-11-30T17:37:59.809Z,46.70
2017-11-30T17:40:26.512Z,26.35
2017-11-30T17:42:53.186Z,31.35
2017-11-30T17:45:19.896Z,30.73
2017-11-30T17:47:47.419Z,35.05
2017-11-30T17:50:14.397Z,29.67
2017-11-30T17:52:41.886Z,36.42
2017-11-30T17:55:09.305Z,28.17
2017-11-30T17:57:35.993Z,42.67
2017-11-30T18:00:03.524Z,47.40
2017-11-30T18:02:30.209Z,51.75
2017-11-30T18:04:57.652Z,47.97
2017-11-30T18:07:25.090Z,99.93
2017-11-30T18:09:51.729Z,63.97
2017-11-30T18:12:18.405Z,126.90
2017-11-30T18:14:45.835Z,81.25
2017-11-30T18:17:12.556Z,120.85
2017-11-30T18:19:39.566Z,130.95
2017-11-30T18:22:07.040Z,84.78
2017-11-30T18:24:34.594Z,60.75
2017-11-30T18:27:02.483Z,66.05
2017-11-30T18:29:29.181Z,59.83
2017-11-30T18:31:55.817Z,72.07
2017-11-30T18:34:22.635Z,74.30
2017-11-30T18:36:50.265Z,91.22
2017-11-30T18:39:17.749Z,66.07
2017-11-30T18:41:44.483Z,140.90
2017-11-30T18:44:11.228Z,100.00
2017-11-30T18:46:37.993Z,86.72
2017-11-30T18:49:04.794Z,100.18
2017-11-30T18:51:31.543Z,135.37
2017-11-30T18:53:59.100Z,100.75
2017-11-30T18:56:26.596Z,98.80
2017-11-30T18:58:53.273Z,203.75
2017-11-30T19:01:19.929Z,115.82
2017-11-30T19:03:46.647Z,81.57
2017-11-30T19:06:13.332Z,70.90
2017-11-30T19:08:40.740Z,101.70
2017-11-30T19:11:07.438Z,81.10
2017-11-30T19:13:34.881Z,126.68
2017-11-30T19:16:02.358Z,86.70
2017-11-30T19:18:29.755Z,288.70
2017-11-30T19:20:56.414Z,282.95
2017-11-30T19:23:23.125Z,113.78
2017-11-30T19:25:49.867Z,135.43
2017-11-30T19:28:16.532Z,138.15
2017-11-30T19:30:43.233Z,316.33
2017-11-30T19:33:09.974Z,127.60
2017-11-30T19:35:37.386Z,188.50
2017-11-30T19:38:04.048Z,192.65
2017-11-30T19:40:31.712Z,162.48
2017-11-30T19:42:58.373Z,192.95
2017-11-30T19:45:26.027Z,261.02
2017-11-30T19:47:52.714Z,135.65
2017-11-30T19:50:20.095Z,118.90
2017-11-30T19:52:47.714Z,99.85
2017-11-30T19:55:14.422Z,81.20
2017-11-30T19:57:41.482Z,89.35
2017-11-30T20:00:08.141Z,77.40
2017-11-30T20:02:34.811Z,84.13
2017-11-30T20:05:03.019Z,138.00
2017-11-30T20:07:29.714Z,83.55
2017-11-30T20:09:56.395Z,70.85
2017-11-30T20:12:23.121Z,63.87
2017-11-30T20:14:50.546Z,69.72
2017-11-30T20:17:17.189Z,70.32
2017-11-30T20:19:43.869Z,182.55
2017-11-30T20:22:11.257Z,64.43
2017-11-30T20:24:37.953Z,79.97
2017-11-30T20:27:04.685Z,151.70
2017-11-30T20:29:31.327Z,106.95
2017-11-30T20:31:58.039Z,60.75
2017-11-30T20:34:25.058Z,55.20
2017-11-30T20:36:51.731Z,58.90
2017-11-30T20:39:18.438Z,48.33
2017-11-30T20:41:45.875Z,52.55
2017-11-30T20:44:12.521Z,47.50
2017-11-30T20:46:39.236Z,48.92
2017-11-30T20:49:05.912Z,64.20
2017-11-30T20:51:32.707Z,57.72
2017-11-30T20:53:59.417Z,61.03
2017-11-30T20:56:26.834Z,68.03
2017-11-30T20:58:53.587Z,57.60
2017-11-30T21:01:20.238Z,60.50
2017-11-30T21:03:46.919Z,135.00
2017-11-30T21:06:13.581Z,290.50
2017-11-30T21:08:40.282Z,357.17
2017-11-30T21:11:07.755Z,325.55
2017-11-30T21:13:35.146Z,321.15
2017-11-30T21:16:01.858Z,327.83
2017-11-30T21:18:29.936Z,211.90
2017-11-30T21:20:56.598Z,222.05
2017-11-30T21:23:23.279Z,484.55
2017-11-30T21:25:50.078Z,440.52
2017-11-30T21:28:16.751Z,660.45
2017-11-30T21:30:43.660Z,341.05
2017-11-30T21:33:10.310Z,488.25
2017-11-30T21:35:37.024Z,455.25
2017-11-30T21:38:04.440Z,356.33
2017-11-30T21:40:31.150Z,160.88
2017-11-30T21:42:57.852Z,410.95
2017-11-30T21:45:24.609Z,172.48
2017-11-30T21:47:51.263Z,247.75
2017-11-30T21:50:18.826Z,262.00
2017-11-30T21:52:45.493Z,239.50
2017-11-30T21:55:12.176Z,352.75
2017-11-30T21:57:38.889Z,749.17
2017-11-30T22:00:05.629Z,203.60
2017-11-30T22:02:32.311Z,178.75
2017-11-30T22:04:59.013Z,174.25
2017-11-30T22:07:25.664Z,517.40
2017-11-30T22:09:52.463Z,181.30
2017-11-30T22:12:19.178Z,143.82
2017-11-30T22:14:45.937Z,229.07
2017-11-30T22:17:13.519Z,183.82
2017-11-30T22:19:40.215Z,269.15
2017-11-30T22:22:06.909Z,168.13
2017-11-30T22:24:34.407Z,165.95
2017-11-30T22:27:01.139Z,349.45
2017-11-30T22:29:27.812Z,213.10
2017-11-30T22:31:54.527Z,113.65
2017-11-30T22:34:21.319Z,109.80
2017-11-30T22:36:48.028Z,123.82
2017-11-30T22:39:14.731Z,116.55
2017-11-30T22:41:42.192Z,74.32
2017-11-30T22:44:09.710Z,46.72
2017-11-30T22:46:36.432Z,50.20
2017-11-30T22:49:03.112Z,115.72
2017-11-30T22:51:30.690Z,32.88
2017-11-30T22:53:58.136Z,41.22
2017-11-30T22:56:24.863Z,32.42
2017-11-30T22:58:51.506Z,41.97
2017-11-30T23:01:18.226Z,33.10
2017-11-30T23:03:44.931Z,31.52
2017-11-30T23:06:11.633Z,28.42
2017-11-30T23:08:39.164Z,31.33
2017-11-30T23:11:05.822Z,25.15
2017-11-30T23:13:32.485Z,28.17
2017-11-30T23:15:59.192Z,27.30
2017-11-30T23:18:25.910Z,22.15
2017-11-30T23:20:52.629Z,22.13
2017-11-30T23:23:19.420Z,27.77
2017-11-30T23:25:46.847Z,29.30
2017-11-30T23:28:13.582Z,23.20
2017-11-30T23:30:40.299Z,20.05
2017-11-30T23:33:06.966Z,19.35
2017-11-30T23:35:33.654Z,29.17
2017-11-30T23:38:00.381Z,25.60
2017-11-30T23:40:27.049Z,22.98
2017-11-30T23:42:54.466Z,21.92
2017-11-30T23:45:21.174Z,14.82
2017-11-30T23:47:47.824Z,19.90
2017-11-30T23:50:14.521Z,19.25
2017-11-30T23:52:41.958Z,18.42
2017-11-30T23:55:08.653Z,20.75
2017-11-30T23:57:35.335Z,20.33
